Time;durP1;ratioP1;P1;durP2;ratioP2;P2;SDS_P1;SDS_P2;PMS_P1;PMS_P2;Temp;Humidity;BMP_temperature;BMP_pressure;BME280_temperature;BME280_humidity;BME280_pressure;Samples;Min_cycle;Max_cycle;Signal;HPM_P1;HPM_P2
2023/03/24 00:00:10;;;;;;;5.13;2.13;;;11.90;99.90;;;;;;5065559;28;20273;-65
2023/03/24 00:02:40;;;;;;;2.43;2.03;;;11.90;99.90;;;;;;5064269;28;20254;-66
2023/03/24 00:05:10;;;;;;;3.97;2.37;;;11.90;99.90;;;;;;5063660;28;20620;-66
2023/03/24 00:07:38;;;;;;;6.23;2.27;;;11.90;99.90;;;;;;5064557;28;20781;-66
2023/03/24 00:10:13;;;;;;;4.40;2.10;;;11.90;99.90;;;;;;5063962;28;20190;-65
2023/03/24 00:12:41;;;;;;;6.17;2.20;;;11.90;99.90;;;;;;5061664;28;20207;-65
2023/03/24 00:15:12;;;;;;;4.70;2.10;;;11.90;99.90;;;;;;5064643;28;20195;-65
2023/03/24 00:17:39;;;;;;;3.77;1.90;;;11.90;99.90;;;;;;5064229;28;20244;-65
2023/03/24 00:20:12;;;;;;;5.67;2.20;;;11.90;99.90;;;;;;5075536;28;20258;-65
2023/03/24 00:22:47;;;;;;;4.20;2.10;;;11.90;99.90;;;;;;5057150;28;20248;-66
2023/03/24 00:25:19;;;;;;;4.37;1.93;;;11.90;99.90;;;;;;5064310;28;20592;-66
2023/03/24 00:27:50;;;;;;;2.37;1.90;;;11.90;99.90;;;;;;5062489;28;20767;-66
2023/03/24 00:30:18;;;;;;;2.97;2.00;;;11.80;99.90;;;;;;5063574;28;20195;-65
2023/03/24 00:32:45;;;;;;;3.77;2.20;;;11.80;99.90;;;;;;5063046;28;20211;-66
2023/03/24 00:35:15;;;;;;;4.87;2.30;;;11.80;1.00;;;;;;5054301;28;20207;-65
2023/03/24 00:37:43;;;;;;;3.60;2.43;;;11.80;99.90;;;;;;5061568;28;20623;-65
2023/03/24 00:40:16;;;;;;;3.20;2.20;;;11.80;99.90;;;;;;5071337;28;20625;-65
2023/03/24 00:42:45;;;;;;;2.97;2.00;;;11.80;1.00;;;;;;5060364;28;20207;-65
2023/03/24 00:45:16;;;;;;;4.43;2.00;;;11.80;1.00;;;;;;5067833;28;20210;-65
2023/03/24 00:47:44;;;;;;;4.17;2.07;;;11.80;99.90;;;;;;5068205;28;20207;-66
2023/03/24 00:50:15;;;;;;;3.57;2.00;;;11.90;99.90;;;;;;5059910;28;20257;-64
2023/03/24 00:52:46;;;;;;;4.20;1.90;;;11.90;99.90;;;;;;5060224;28;20234;-64
2023/03/24 00:55:15;;;;;;;5.13;2.00;;;11.80;99.90;;;;;;5060105;28;20191;-65
2023/03/24 00:57:51;;;;;;;6.13;2.07;;;11.90;99.90;;;;;;5057938;28;20202;-64
2023/03/24 01:00:22;;;;;;;2.43;1.77;;;11.90;99.90;;;;;;5059904;28;20215;-65
2023/03/24 01:02:55;;;;;;;2.10;1.60;;;11.90;99.90;;;;;;5059549;28;20242;-66
2023/03/24 01:05:26;;;;;;;2.97;1.93;;;11.90;99.90;;;;;;5055944;28;20207;-66
2023/03/24 01:08:03;;;;;;;2.77;1.90;;;11.90;99.90;;;;;;5056749;28;20677;-65
2023/03/24 01:10:41;;;;;;;1.73;1.53;;;12.00;99.90;;;;;;5076464;28;20647;-64
2023/03/24 01:13:09;;;;;;;2.93;1.93;;;12.00;99.90;;;;;;5058859;28;20215;-65
2023/03/24 01:15:37;;;;;;;2.10;1.77;;;12.10;99.90;;;;;;5060650;28;20613;-65
2023/03/24 01:18:04;;;;;;;3.20;1.70;;;12.20;99.90;;;;;;5050694;28;20198;-65
2023/03/24 01:20:32;;;;;;;4.50;1.90;;;12.20;99.90;;;;;;5062874;28;20197;-67
2023/03/24 01:23:00;;;;;;;3.47;1.87;;;12.20;99.90;;;;;;5074394;28;20201;-65
2023/03/24 01:25:29;;;;;;;2.57;1.70;;;12.20;99.90;;;;;;5059100;28;20203;-65
2023/03/24 01:27:56;;;;;;;3.17;1.90;;;12.50;99.90;;;;;;5057465;28;20253;-65
2023/03/24 01:30:25;;;;;;;3.07;2.13;;;12.50;99.90;;;;;;5056801;28;20208;-65
2023/03/24 01:32:53;;;;;;;2.07;1.87;;;12.60;99.90;;;;;;5057663;28;20231;-65
2023/03/24 01:35:22;;;;;;;4.17;2.07;;;12.40;99.90;;;;;;5059249;28;20287;-67
2023/03/24 01:37:49;;;;;;;2.77;2.00;;;12.30;99.90;;;;;;5060115;28;20595;-65
2023/03/24 01:40:23;;;;;;;3.97;2.20;;;12.30;99.90;;;;;;5074283;28;20222;-66
2023/03/24 01:42:50;;;;;;;5.07;2.13;;;12.30;99.90;;;;;;5058933;28;20256;-65
2023/03/24 01:45:45;;;;;;;5.63;2.03;;;12.20;99.90;;;;;;5074744;28;20698;-64
2023/03/24 01:48:27;;;;;;;2.00;1.80;;;12.30;99.90;;;;;;5058746;28;20203;-65
2023/03/24 01:51:03;;;;;;;3.73;2.10;;;12.30;99.90;;;;;;5056332;28;20663;-65
2023/03/24 01:53:32;;;;;;;6.03;3.30;;;12.30;99.90;;;;;;5066782;28;20203;-65
2023/03/24 01:56:01;;;;;;;4.43;2.80;;;12.20;99.90;;;;;;5065241;28;20654;-65
2023/03/24 01:58:34;;;;;;;2.30;2.10;;;12.30;99.90;;;;;;5056819;28;20217;-65
2023/03/24 02:01:29;;;;;;;2.00;1.80;;;12.30;99.90;;;;;;5057133;28;20245;-65
2023/03/24 02:04:12;;;;;;;3.63;2.23;;;12.40;99.90;;;;;;5065489;28;20219;-65
2023/03/24 02:06:42;;;;;;;3.20;2.20;;;12.30;1.00;;;;;;5072544;28;20626;-66
2023/03/24 02:09:12;;;;;;;5.13;2.93;;;12.20;1.00;;;;;;5057644;28;20264;-66
2023/03/24 02:11:40;;;;;;;3.10;2.43;;;12.10;1.00;;;;;;5039241;28;20250;-64
2023/03/24 02:14:08;;;;;;;2.50;2.30;;;12.10;1.00;;;;;;5058706;28;20187;-66
2023/03/24 02:16:53;;;;;;;3.50;2.13;;;12.10;1.00;;;;;;5048570;28;20248;-66
2023/03/24 02:19:48;;;;;;;5.40;2.63;;;12.10;1.00;;;;;;5074655;28;20196;-66
2023/03/24 02:22:15;;;;;;;3.97;2.47;;;12.20;1.00;;;;;;5034652;28;20191;-67
2023/03/24 02:24:51;;;;;;;3.50;2.90;;;12.20;1.00;;;;;;5056186;28;20206;-67
2023/03/24 02:27:41;;;;;;;2.63;2.33;;;12.20;1.00;;;;;;5064066;28;20253;-67
2023/03/24 02:30:39;;;;;;;2.73;2.47;;;12.30;1.00;;;;;;5057874;28;20195;-67
2023/03/24 02:33:37;;;;;;;2.40;2.20;;;12.20;1.00;;;;;;5069916;28;20213;-68
2023/03/24 02:36:04;;;;;;;3.77;2.40;;;12.30;99.90;;;;;;5065278;28;20203;-66
2023/03/24 02:38:40;;;;;;;3.40;2.70;;;12.30;99.90;;;;;;5066098;28;20933;-68
2023/03/24 02:41:10;;;;;;;3.73;2.40;;;12.20;1.00;;;;;;5056516;28;20199;-66
2023/03/24 02:43:55;;;;;;;3.27;2.43;;;12.30;99.90;;;;;;5058507;28;20199;-64
2023/03/24 02:46:34;;;;;;;3.67;2.70;;;12.20;1.00;;;;;;5054761;28;20630;-65
2023/03/24 02:49:28;;;;;;;2.87;2.40;;;12.20;1.00;;;;;;5056477;28;20203;-67
2023/03/24 02:51:59;;;;;;;2.90;2.20;;;12.30;99.90;;;;;;5049737;28;20226;-66
2023/03/24 02:54:35;;;;;;;4.00;2.50;;;12.30;99.90;;;;;;5056348;28;20206;-66
2023/03/24 02:57:16;;;;;;;2.97;2.10;;;12.30;1.00;;;;;;5055621;28;20191;-65
2023/03/24 03:00:16;;;;;;;5.00;2.40;;;12.30;1.00;;;;;;5057687;28;20215;-65
2023/03/24 03:03:20;;;;;;;3.03;2.63;;;12.20;1.00;;;;;;5064154;28;20677;-65
2023/03/24 03:05:59;;;;;;;4.93;2.47;;;12.20;1.00;;;;;;5056295;28;20209;-65
2023/03/24 03:08:32;;;;;;;4.50;3.00;;;12.20;1.00;;;;;;5057389;28;20678;-66
2023/03/24 03:11:02;;;;;;;3.10;2.80;;;12.20;1.00;;;;;;5055011;28;20219;-72
2023/03/24 03:13:37;;;;;;;4.50;2.87;;;12.10;1.00;;;;;;5056374;28;20581;-71
2023/03/24 03:16:12;;;;;;;4.37;2.80;;;12.20;1.00;;;;;;5051902;28;20665;-72
2023/03/24 03:18:48;;;;;;;3.33;2.90;;;12.20;1.00;;;;;;5058984;28;20187;-71
2023/03/24 03:21:21;;;;;;;3.97;2.90;;;12.20;1.00;;;;;;5059148;28;20646;-70
2023/03/24 03:23:58;;;;;;;3.20;2.87;;;12.20;1.00;;;;;;5072516;28;20226;-71
2023/03/24 03:26:31;;;;;;;4.23;3.37;;;12.20;1.00;;;;;;5057933;28;20195;-71
2023/03/24 03:29:04;;;;;;;3.67;3.10;;;12.30;1.00;;;;;;5057769;28;20195;-66
2023/03/24 03:31:41;;;;;;;3.97;3.00;;;12.40;1.00;;;;;;5056409;28;20206;-65
2023/03/24 03:34:21;;;;;;;3.87;3.20;;;12.50;99.90;;;;;;5064886;28;20191;-66
2023/03/24 03:37:00;;;;;;;4.40;2.90;;;12.50;99.90;;;;;;5057973;28;20190;-65
2023/03/24 03:39:32;;;;;;;2.90;2.60;;;12.70;99.90;;;;;;5057373;28;20212;-64
2023/03/24 03:42:05;;;;;;;4.03;2.77;;;12.80;99.90;;;;;;5072569;28;20216;-65
2023/03/24 03:44:34;;;;;;;3.17;2.50;;;12.80;99.90;;;;;;5064362;28;20211;-66
2023/03/24 03:47:02;;;;;;;4.40;2.73;;;12.90;99.90;;;;;;5105844;22;20470;-74
2023/03/24 03:49:37;;;;;;;4.47;3.40;;;13.00;99.90;;;;;;5043498;23;20798;-72
2023/03/24 03:52:05;;;;;;;3.13;2.33;;;13.00;99.90;;;;;;5039829;28;20213;-74
2023/03/24 03:54:33;;;;;;;3.13;2.53;;;13.10;99.60;;;;;;5022987;28;20206;-73
2023/03/24 03:57:01;;;;;;;3.87;3.00;;;13.10;99.70;;;;;;5038777;28;20197;-73
2023/03/24 03:59:35;;;;;;;4.37;3.20;;;13.10;99.90;;;;;;5020477;28;20192;-74
2023/03/24 04:02:28;;;;;;;3.93;2.40;;;13.10;96.70;;;;;;5008814;28;20707;-75
2023/03/24 04:05:13;;;;;;;4.53;2.70;;;13.10;99.90;;;;;;5004955;28;20283;-73
2023/03/24 04:08:07;;;;;;;3.87;2.73;;;13.10;99.90;;;;;;5016216;28;20204;-73
2023/03/24 04:11:20;;;;;;;3.10;2.53;;;13.10;99.90;;;;;;5000150;28;20234;-73
2023/03/24 04:14:26;;;;;;;4.10;2.70;;;13.10;99.90;;;;;;5005712;28;20214;-73
2023/03/24 04:17:23;;;;;;;2.90;2.50;;;13.00;99.90;;;;;;5005962;28;20211;-73
2023/03/24 04:20:13;;;;;;;4.30;3.27;;;13.00;99.90;;;;;;4987133;28;20255;-73
2023/03/24 04:23:02;;;;;;;3.63;2.70;;;13.10;99.90;;;;;;5001447;28;20197;-73
2023/03/24 04:25:43;;;;;;;3.10;2.30;;;13.10;99.90;;;;;;5006320;28;20211;-73
2023/03/24 04:28:25;;;;;;;2.67;2.40;;;13.00;99.90;;;;;;4984090;28;20672;-73
2023/03/24 04:31:07;;;;;;;3.70;3.33;;;13.00;99.90;;;;;;5006326;28;20183;-72
2023/03/24 04:33:57;;;;;;;3.40;2.60;;;13.00;99.90;;;;;;5004680;28;20201;-73
2023/03/24 04:36:43;;;;;;;3.10;2.80;;;12.90;99.90;;;;;;4994608;28;20193;-73
2023/03/24 04:39:44;;;;;;;3.37;3.07;;;12.90;99.90;;;;;;4959352;28;20206;-73
2023/03/24 04:42:25;;;;;;;4.80;3.33;;;12.80;99.90;;;;;;4987783;28;20396;-73
2023/03/24 04:44:52;;;;;;;3.73;3.10;;;12.80;99.90;;;;;;4994829;28;20330;-73
2023/03/24 04:47:55;;;;;;;3.70;3.10;;;12.70;1.00;;;;;;4993091;28;20228;-73
2023/03/24 04:50:37;;;;;;;4.33;3.50;;;12.50;1.00;;;;;;5003492;28;20211;-73
2023/03/24 04:53:08;;;;;;;6.30;3.60;;;12.50;1.00;;;;;;4987004;28;20627;-73
2023/03/24 04:55:59;;;;;;;4.47;3.50;;;12.40;1.00;;;;;;5012903;28;20255;-74
2023/03/24 04:58:47;;;;;;;4.80;3.80;;;12.30;99.90;;;;;;5001130;28;20604;-74
2023/03/24 05:01:15;;;;;;;5.37;4.20;;;12.30;99.90;;;;;;4996243;28;20227;-74
2023/03/24 05:03:52;;;;;;;4.33;3.90;;;12.30;99.90;;;;;;5004079;28;20209;-75
2023/03/24 05:06:19;;;;;;;4.83;3.10;;;12.30;99.90;;;;;;4977665;28;20288;-73
2023/03/24 05:08:46;;;;;;;4.13;2.27;;;12.20;38.30;;;;;;5003246;28;20315;-73
2023/03/24 05:11:13;;;;;;;2.27;2.03;;;12.30;1.00;;;;;;5003397;28;20692;-74
2023/03/24 05:13:47;;;;;;;2.50;2.30;;;12.30;1.00;;;;;;4995172;28;20278;-73
2023/03/24 05:16:14;;;;;;;4.10;2.83;;;12.30;99.90;;;;;;4995756;28;20212;-74
2023/03/24 05:18:50;;;;;;;3.23;2.20;;;12.20;99.90;;;;;;5005996;28;20672;-73
2023/03/24 05:21:19;;;;;;;2.37;1.90;;;12.30;1.00;;;;;;4990588;28;20370;-73
2023/03/24 05:23:46;;;;;;;2.13;1.83;;;12.20;1.00;;;;;;5008228;28;20200;-73
2023/03/24 05:26:13;;;;;;;2.20;2.00;;;12.30;1.00;;;;;;5011849;28;20279;-74
2023/03/24 05:28:59;;;;;;;2.23;1.73;;;12.30;1.00;;;;;;5002416;28;20204;-74
2023/03/24 05:31:28;;;;;;;2.17;1.80;;;12.20;1.00;;;;;;5011721;28;20708;-73
2023/03/24 05:34:01;;;;;;;2.00;1.67;;;12.20;1.00;;;;;;5019168;28;20221;-74
2023/03/24 05:36:33;;;;;;;2.20;1.60;;;12.20;1.00;;;;;;4985074;28;20271;-73
2023/03/24 05:39:00;;;;;;;2.37;1.80;;;12.20;1.00;;;;;;5002744;28;20196;-74
2023/03/24 05:41:43;;;;;;;3.00;1.83;;;12.20;1.00;;;;;;4989670;28;20222;-73
2023/03/24 05:44:10;;;;;;;2.50;1.90;;;12.20;1.00;;;;;;5011021;28;20209;-73
2023/03/24 05:46:38;;;;;;;4.67;2.53;;;12.30;1.00;;;;;;4995643;28;20750;-73
2023/03/24 05:49:05;;;;;;;5.30;2.27;;;12.30;1.00;;;;;;4987485;28;20290;-73
2023/03/24 05:51:37;;;;;;;2.70;2.07;;;12.30;1.00;;;;;;5005212;28;20212;-74
2023/03/24 05:54:06;;;;;;;4.70;2.43;;;12.30;1.00;;;;;;5011242;28;20306;-73
2023/03/24 05:56:39;;;;;;;3.03;2.77;;;12.30;1.00;;;;;;5003519;28;20315;-73
2023/03/24 05:59:30;;;;;;;5.07;3.00;;;12.30;1.00;;;;;;5003760;28;20341;-73
2023/03/24 06:02:11;;;;;;;3.20;2.90;;;12.30;1.00;;;;;;4987888;28;20618;-73
2023/03/24 06:04:52;;;;;;;3.30;3.00;;;12.30;1.00;;;;;;4996041;28;20196;-74
2023/03/24 06:07:25;;;;;;;3.70;3.30;;;12.30;1.00;;;;;;5021464;28;20197;-75
2023/03/24 06:09:56;;;;;;;4.73;3.40;;;12.40;99.90;;;;;;4992864;28;20224;-73
2023/03/24 06:12:25;;;;;;;3.33;3.03;;;12.30;99.90;;;;;;4990160;28;20223;-73
2023/03/24 06:14:57;;;;;;;2.97;2.40;;;12.30;99.90;;;;;;5003345;28;20208;-73
2023/03/24 06:17:29;;;;;;;2.33;1.97;;;12.20;99.90;;;;;;5010850;28;20205;-73
2023/03/24 06:20:01;;;;;;;3.37;1.90;;;12.20;99.90;;;;;;5004026;28;20498;-73
2023/03/24 06:22:46;;;;;;;3.23;1.87;;;12.10;95.60;;;;;;5003799;28;20303;-73
2023/03/24 06:25:19;;;;;;;3.40;1.80;;;12.10;94.30;;;;;;5003089;28;20251;-75
2023/03/24 06:28:13;;;;;;;3.23;1.87;;;12.10;99.90;;;;;;4994526;28;20215;-73
2023/03/24 06:30:43;;;;;;;3.33;1.80;;;12.10;99.90;;;;;;5017624;28;20748;-75
2023/03/24 06:33:18;;;;;;;3.80;1.93;;;12.20;6.80;;;;;;5011357;28;20231;-74
2023/03/24 06:35:47;;;;;;;3.20;1.50;;;12.70;1.00;;;;;;4993513;28;20213;-74
2023/03/24 06:38:17;;;;;;;4.50;1.50;;;13.90;1.00;;;;;;4998904;28;20196;-73
2023/03/24 06:40:45;;;;;;;2.28;1.67;;;14.60;1.00;;;;;;5010218;28;20248;-73
2023/03/24 06:43:12;;;;;;;4.25;2.00;;;15.20;1.00;;;;;;4984569;28;20224;-74
2023/03/24 06:45:42;;;;;;;3.83;2.00;;;14.60;1.00;;;;;;4986213;28;20686;-74
2023/03/24 06:48:15;;;;;;;3.05;1.95;;;15.60;1.00;;;;;;5001598;28;20228;-74
2023/03/24 06:50:43;;;;;;;4.13;2.20;;;14.30;1.00;;;;;;4984352;28;20255;-74
2023/03/24 06:53:10;;;;;;;6.77;2.53;;;13.40;1.00;;;;;;5019106;28;20219;-75
2023/03/24 06:55:38;;;;;;;6.13;1.93;;;13.00;1.00;;;;;;4986841;28;20207;-75
2023/03/24 06:58:06;;;;;;;3.30;2.07;;;12.50;1.00;;;;;;5005828;28;20204;-73
2023/03/24 07:00:54;;;;;;;5.40;2.50;;;12.20;1.00;;;;;;4986532;28;20692;-75
2023/03/24 07:03:26;;;;;;;5.67;3.27;;;12.00;1.00;;;;;;5009307;28;20779;-73
2023/03/24 07:06:14;;;;;;;5.77;2.90;;;12.10;1.00;;;;;;5001134;28;20220;-74
2023/03/24 07:08:43;;;;;;;5.78;2.42;;;14.40;1.00;;;;;;5002365;28;20212;-74
2023/03/24 07:11:11;;;;;;;6.43;2.40;;;16.00;1.00;;;;;;5011523;28;20283;-73
2023/03/24 07:13:46;;;;;;;6.45;2.60;;;16.80;1.00;;;;;;5008967;28;20227;-74
2023/03/24 07:16:14;;;;;;;5.80;2.60;;;19.80;1.00;;;;;;5014954;28;20227;-74
2023/03/24 07:18:42;;;;;;;5.05;1.88;;;21.80;1.00;;;;;;4993376;28;20228;-74
2023/03/24 07:21:09;;;;;;;6.10;2.60;;;21.20;1.00;;;;;;5010212;28;20222;-74
2023/03/24 07:23:36;;;;;;;5.38;2.47;;;19.60;1.00;;;;;;4987132;28;20208;-74
2023/03/24 07:26:10;;;;;;;6.75;2.70;;;19.90;1.00;;;;;;4984740;28;20200;-74
2023/03/24 07:28:46;;;;;;;9.52;2.50;;;18.00;1.00;;;;;;5010692;28;20220;-73
2023/03/24 07:31:27;;;;;;;9.18;2.50;;;17.30;1.00;;;;;;4994166;28;20231;-74
2023/03/24 07:33:59;;;;;;;7.68;2.67;;;16.00;1.00;;;;;;4986861;28;20221;-74
2023/03/24 07:36:28;;;;;;;7.15;3.10;;;16.60;1.00;;;;;;5009505;28;20609;-74
2023/03/24 07:38:56;;;;;;;7.95;2.35;;;19.90;1.00;;;;;;5009614;28;20197;-74
2023/03/24 07:41:30;;;;;;;4.97;2.30;;;22.50;1.00;;;;;;5017255;28;20204;-74
2023/03/24 07:44:01;;;;;;;7.20;2.30;;;22.30;1.00;;;;;;4984076;28;20204;-76
2023/03/24 07:46:48;;;;;;;5.88;2.53;;;22.60;1.00;;;;;;5003437;28;21034;-75
2023/03/24 07:49:16;;;;;;;4.60;2.20;;;20.80;1.00;;;;;;5022107;28;20663;-74
2023/03/24 07:52:06;;;;;;;5.65;2.38;;;19.40;1.00;;;;;;5011975;28;20291;-74
2023/03/24 07:54:36;;;;;;;8.02;2.70;;;18.60;1.00;;;;;;4988699;28;20776;-74
2023/03/24 07:57:03;;;;;;;5.22;2.13;;;18.90;1.00;;;;;;4989938;28;20201;-74
2023/03/24 07:59:32;;;;;;;5.38;2.60;;;20.20;1.00;;;;;;4989185;28;20640;-74
2023/03/24 08:02:26;;;;;;;9.60;2.50;;;20.40;1.00;;;;;;5009695;28;21102;-75
2023/03/24 08:05:21;;;;;;;8.88;2.63;;;20.90;1.00;;;;;;5006473;28;20227;-75
2023/03/24 08:08:09;;;;;;;5.57;2.05;;;22.40;1.00;;;;;;5008062;28;20271;-74
2023/03/24 08:10:36;;;;;;;6.70;2.33;;;22.10;1.00;;;;;;4989184;28;20224;-73
2023/03/24 08:13:03;;;;;;;8.73;2.10;;;18.60;1.00;;;;;;4986823;28;20580;-74
2023/03/24 08:15:31;;;;;;;7.50;2.70;;;18.80;1.00;;;;;;5004689;28;20227;-74
2023/03/24 08:17:58;;;;;;;7.82;3.20;;;20.20;1.00;;;;;;5001379;28;20648;-74
2023/03/24 08:20:26;;;;;;;6.07;3.40;;;18.60;1.00;;;;;;5006280;28;20204;-75
2023/03/24 08:22:53;;;;;;;5.95;2.83;;;16.70;1.00;;;;;;4989814;28;20208;-74
2023/03/24 08:25:25;;;;;;;6.65;3.78;;;18.10;1.00;;;;;;5014011;28;20207;-74
2023/03/24 08:27:53;;;;;;;5.38;3.20;;;18.70;1.00;;;;;;5013319;28;20660;-74
2023/03/24 08:30:22;;;;;;;7.22;3.53;;;16.70;1.00;;;;;;4999426;28;20205;-73
2023/03/24 08:32:55;;;;;;;9.63;3.00;;;16.00;1.00;;;;;;5013618;28;20208;-73
2023/03/24 08:35:30;;;;;;;7.03;2.83;;;15.40;1.00;;;;;;5005831;28;20555;-74
2023/03/24 08:37:58;;;;;;;8.55;2.80;;;15.90;1.00;;;;;;5012366;28;20211;-74
2023/03/24 08:40:27;;;;;;;9.23;3.10;;;15.70;1.00;;;;;;4987854;28;20665;-75
2023/03/24 08:43:01;;;;;;;7.20;2.53;;;17.40;1.00;;;;;;5004816;28;20201;-74
2023/03/24 08:45:30;;;;;;;7.20;2.17;;;19.60;1.00;;;;;;4989087;28;20668;-74
2023/03/24 08:48:00;;;;;;;7.47;2.15;;;19.40;1.00;;;;;;5020453;28;20240;-74
2023/03/24 08:50:31;;;;;;;5.75;2.20;;;21.10;1.00;;;;;;5008816;28;20205;-74
2023/03/24 08:52:58;;;;;;;8.15;2.50;;;20.20;1.00;;;;;;4994076;28;20225;-74
2023/03/24 08:55:25;;;;;;;6.55;1.67;;;22.20;1.00;;;;;;5000412;28;20202;-75
2023/03/24 08:57:53;;;;;;;7.68;2.47;;;21.10;1.00;;;;;;5002755;28;20193;-74
2023/03/24 09:00:20;;;;;;;7.40;2.10;;;21.60;1.00;;;;;;5008137;28;20229;-74
2023/03/24 09:02:50;;;;;;;6.40;2.28;;;20.70;1.00;;;;;;5016215;28;20643;-74
2023/03/24 09:05:18;;;;;;;4.68;2.05;;;21.00;1.00;;;;;;5012946;28;20196;-74
2023/03/24 09:07:55;;;;;;;6.38;2.17;;;21.70;1.00;;;;;;5018847;28;20255;-75
2023/03/24 09:10:22;;;;;;;7.70;2.70;;;20.60;1.00;;;;;;5007315;28;20692;-74
2023/03/24 09:12:50;;;;;;;8.88;2.17;;;20.40;1.00;;;;;;5000924;28;20220;-75
2023/03/24 09:15:17;;;;;;;12.30;2.38;;;17.50;1.00;;;;;;5002163;28;20215;-74
2023/03/24 09:17:44;;;;;;;6.20;2.10;;;20.50;1.00;;;;;;5000612;28;20681;-74
2023/03/24 09:20:14;;;;;;;9.02;2.30;;;19.20;1.00;;;;;;5015931;28;20193;-73
2023/03/24 09:22:44;;;;;;;9.77;2.53;;;16.30;1.00;;;;;;5008094;28;20292;-73
2023/03/24 09:25:14;;;;;;;7.00;2.50;;;17.80;1.00;;;;;;5001389;28;20204;-73
2023/03/24 09:27:41;;;;;;;9.40;2.35;;;16.80;1.00;;;;;;5001179;28;20201;-74
2023/03/24 09:30:12;;;;;;;8.30;2.90;;;16.10;1.00;;;;;;5007835;28;20209;-73
2023/03/24 09:32:39;;;;;;;11.18;2.50;;;15.60;1.00;;;;;;4995624;28;20622;-73
2023/03/24 09:35:07;;;;;;;9.82;2.13;;;16.50;1.00;;;;;;4996290;28;20557;-74
2023/03/24 09:37:36;;;;;;;9.00;2.60;;;17.30;1.00;;;;;;5000409;28;20684;-73
2023/03/24 09:40:03;;;;;;;8.43;2.67;;;19.70;1.00;;;;;;4998651;28;20189;-74
2023/03/24 09:42:39;;;;;;;10.75;2.78;;;17.80;1.00;;;;;;5003309;28;20577;-74
2023/03/24 09:45:20;;;;;;;7.97;2.70;;;18.20;1.00;;;;;;5009842;28;20863;-73
2023/03/24 09:48:10;;;;;;;8.85;2.75;;;20.50;1.00;;;;;;4998508;28;20259;-74
2023/03/24 09:50:59;;;;;;;7.15;2.30;;;19.60;1.00;;;;;;5001731;28;20200;-74
2023/03/24 09:53:48;;;;;;;5.43;2.28;;;24.00;1.00;;;;;;5014200;28;20217;-73
2023/03/24 09:56:18;;;;;;;8.93;2.40;;;23.40;1.00;;;;;;4981895;28;20672;-74
2023/03/24 09:59:08;;;;;;;6.45;2.28;;;22.20;1.00;;;;;;5002537;28;20691;-74
2023/03/24 10:01:35;;;;;;;6.68;1.98;;;21.70;1.00;;;;;;4990337;28;20237;-74
2023/03/24 10:04:06;;;;;;;7.22;2.10;;;20.90;1.00;;;;;;5014855;28;20620;-74
2023/03/24 10:06:40;;;;;;;10.93;2.47;;;19.80;1.00;;;;;;5017085;28;20192;-75
2023/03/24 10:09:46;;;;;;;7.55;2.40;;;18.10;1.00;;;;;;5014672;28;20205;-73
2023/03/24 10:12:20;;;;;;;8.07;2.33;;;17.00;1.00;;;;;;4997105;28;20669;-74
2023/03/24 10:15:05;;;;;;;12.07;2.78;;;15.90;1.00;;;;;;5016659;28;20222;-73
2023/03/24 10:17:55;;;;;;;7.68;2.40;;;16.00;1.00;;;;;;4997946;28;20255;-74
2023/03/24 10:20:45;;;;;;;7.43;2.50;;;16.80;1.00;;;;;;5000971;28;20239;-73
2023/03/24 10:23:12;;;;;;;12.77;2.80;;;16.90;1.00;;;;;;4999292;28;20263;-74
2023/03/24 10:25:42;;;;;;;11.10;2.38;;;16.80;1.00;;;;;;5005393;28;20196;-74
2023/03/24 10:28:35;;;;;;;7.40;2.10;;;16.60;1.00;;;;;;4983583;28;20716;-73
2023/03/24 10:31:12;;;;;;;7.63;2.58;;;16.10;1.00;;;;;;5013746;28;20295;-75
2023/03/24 10:33:42;;;;;;;10.25;4.32;;;15.80;1.00;;;;;;4980847;28;20578;-75
2023/03/24 10:36:19;;;;;;;10.40;4.75;;;15.30;1.00;;;;;;4998373;28;20193;-75
2023/03/24 10:38:47;;;;;;;13.00;4.00;;;15.40;1.00;;;;;;4999632;28;20268;-74
2023/03/24 10:41:20;;;;;;;7.28;2.60;;;15.60;1.00;;;;;;4983741;28;20802;-74
2023/03/24 10:43:49;;;;;;;6.43;2.42;;;16.00;1.00;;;;;;4995858;28;20198;-73
2023/03/24 10:46:22;;;;;;;7.85;3.05;;;16.00;1.00;;;;;;4998311;28;20204;-74
2023/03/24 10:48:52;;;;;;;9.48;2.92;;;16.50;1.00;;;;;;4987835;28;20760;-73
2023/03/24 10:51:25;;;;;;;11.68;3.30;;;16.50;1.00;;;;;;5006406;28;20202;-74
2023/03/24 10:54:15;;;;;;;15.40;4.22;;;16.60;1.00;;;;;;4997481;28;20227;-74
2023/03/24 10:56:44;;;;;;;8.43;3.78;;;16.40;1.00;;;;;;5013584;28;20575;-73
2023/03/24 10:59:35;;;;;;;9.98;3.15;;;16.10;1.00;;;;;;4996723;28;20557;-75
2023/03/24 11:02:23;;;;;;;8.88;3.10;;;16.10;1.00;;;;;;5003866;28;20240;-75
2023/03/24 11:05:12;;;;;;;7.53;2.92;;;17.70;1.00;;;;;;5013613;28;20205;-73
2023/03/24 11:07:43;;;;;;;8.90;2.67;;;16.70;1.00;;;;;;4996875;28;20207;-73
2023/03/24 11:10:20;;;;;;;4.65;2.30;;;16.20;1.00;;;;;;4999772;28;20698;-74
2023/03/24 11:13:18;;;;;;;8.50;3.42;;;16.20;1.00;;;;;;4983623;28;20208;-74
2023/03/24 11:15:56;;;;;;;8.95;3.35;;;15.50;1.00;;;;;;4996066;28;20901;-74
2023/03/24 11:18:23;;;;;;;8.20;3.53;;;15.70;1.00;;;;;;4998829;28;20196;-74
2023/03/24 11:21:02;;;;;;;6.55;2.47;;;16.70;1.00;;;;;;4978037;28;20201;-73
2023/03/24 11:23:33;;;;;;;8.23;2.55;;;17.80;1.00;;;;;;4999572;28;20193;-74
2023/03/24 11:26:30;;;;;;;6.93;2.35;;;19.10;1.00;;;;;;5012813;28;20185;-74
2023/03/24 11:29:06;;;;;;;9.32;2.40;;;20.90;1.00;;;;;;4994757;28;20205;-74
2023/03/24 11:31:38;;;;;;;6.53;2.42;;;19.40;1.00;;;;;;5013845;28;20235;-74
2023/03/24 11:34:24;;;;;;;7.38;2.88;;;17.90;1.00;;;;;;4995919;28;20217;-75
2023/03/24 11:36:59;;;;;;;5.32;2.22;;;17.80;1.00;;;;;;5002951;28;20231;-74
2023/03/24 11:39:28;;;;;;;7.18;2.95;;;17.00;1.00;;;;;;5001916;28;20204;-74
2023/03/24 11:42:09;;;;;;;5.82;2.85;;;16.70;1.00;;;;;;4996885;28;20308;-74
2023/03/24 11:44:51;;;;;;;6.63;3.38;;;16.20;1.00;;;;;;4980901;28;20337;-74
2023/03/24 11:47:31;;;;;;;11.75;3.63;;;16.80;1.00;;;;;;4997026;28;20220;-74
2023/03/24 11:50:10;;;;;;;6.72;3.05;;;17.00;1.00;;;;;;5015588;28;20215;-74
2023/03/24 11:53:06;;;;;;;10.35;4.53;;;16.60;1.00;;;;;;4984303;28;20196;-74
2023/03/24 11:55:39;;;;;;;6.97;3.22;;;16.40;1.00;;;;;;5014051;28;20244;-75
2023/03/24 11:58:32;;;;;;;9.48;4.05;;;16.50;1.00;;;;;;5019128;28;20184;-74
2023/03/24 12:01:21;;;;;;;6.72;2.90;;;18.50;1.00;;;;;;4989933;28;20228;-74
2023/03/24 12:03:55;;;;;;;4.75;2.10;;;18.80;1.00;;;;;;4998472;28;20284;-74
2023/03/24 12:06:59;;;;;;;5.05;2.10;;;18.50;1.00;;;;;;5004435;28;20196;-74
2023/03/24 12:09:31;;;;;;;7.15;2.20;;;17.20;1.00;;;;;;4985739;28;20644;-74
2023/03/24 12:12:20;;;;;;;6.57;2.08;;;17.50;1.00;;;;;;5018111;28;20192;-75
2023/03/24 12:15:01;;;;;;;5.18;1.60;;;18.40;1.00;;;;;;5000394;28;20219;-74
2023/03/24 12:18:00;;;;;;;4.75;2.10;;;19.60;1.00;;;;;;4989392;28;20213;-74
2023/03/24 12:20:35;;;;;;;3.60;2.30;;;19.00;1.00;;;;;;4990650;28;20201;-74
2023/03/24 12:23:19;;;;;;;7.28;2.20;;;18.50;1.00;;;;;;4999719;28;20199;-74
2023/03/24 12:25:52;;;;;;;7.88;2.38;;;18.60;1.00;;;;;;4984122;28;20204;-75
2023/03/24 12:28:48;;;;;;;5.95;1.70;;;17.70;1.00;;;;;;5017196;28;20236;-77
2023/03/24 12:31:40;;;;;;;6.93;1.98;;;17.60;1.00;;;;;;4949993;28;20821;-76
2023/03/24 12:34:55;;;;;;;5.15;1.90;;;17.50;1.00;;;;;;4985812;28;20659;-77
2023/03/24 12:37:28;;;;;;;5.85;1.55;;;18.20;1.00;;;;;;5003662;28;20208;-77
2023/03/24 12:40:18;;;;;;;3.85;1.70;;;18.20;1.00;;;;;;5021022;28;20609;-77
2023/03/24 12:42:45;;;;;;;3.78;1.60;;;18.00;1.00;;;;;;4990299;28;20207;-77
2023/03/24 12:45:25;;;;;;;5.88;1.90;;;17.00;1.00;;;;;;5011753;28;20618;-77
2023/03/24 12:48:12;;;;;;;7.18;1.90;;;16.80;1.00;;;;;;5002105;28;20228;-76
2023/03/24 12:50:53;;;;;;;5.05;1.90;;;16.90;1.00;;;;;;5003600;28;20200;-77
2023/03/24 12:53:22;;;;;;;5.40;1.95;;;17.10;1.00;;;;;;5002532;28;20200;-77
2023/03/24 12:56:00;;;;;;;6.38;1.65;;;17.20;1.00;;;;;;5024710;28;20230;-79
2023/03/24 12:58:47;;;;;;;7.82;2.03;;;17.20;1.00;;;;;;5025389;28;20199;-77
2023/03/24 13:01:18;;;;;;;6.03;1.98;;;17.50;1.00;;;;;;5022280;28;20279;-78
2023/03/24 13:04:10;;;;;;;5.80;1.83;;;17.50;1.00;;;;;;5013877;28;20251;-77
2023/03/24 13:07:10;;;;;;;3.28;1.52;;;17.20;1.00;;;;;;4998424;28;20205;-77
2023/03/24 13:09:55;;;;;;;4.80;2.17;;;17.00;1.00;;;;;;4992744;28;20654;-79
2023/03/24 13:12:35;;;;;;;6.55;2.22;;;16.80;1.00;;;;;;5006955;28;20205;-78
2023/03/24 13:15:36;;;;;;;5.75;2.00;;;16.50;1.00;;;;;;5006851;28;20208;-78
2023/03/24 13:18:28;;;;;;;6.10;2.00;;;17.30;1.00;;;;;;5021912;28;20193;-78
2023/03/24 13:21:02;;;;;;;4.68;1.70;;;17.20;1.00;;;;;;5004306;28;20231;-78
2023/03/24 13:23:53;;;;;;;7.13;2.05;;;17.10;1.00;;;;;;4999891;28;20719;-78
2023/03/24 13:26:39;;;;;;;4.18;1.77;;;17.20;1.00;;;;;;5002355;28;20862;-78
2023/03/24 13:29:39;;;;;;;5.82;1.80;;;17.30;1.00;;;;;;5008812;28;20220;-80
2023/03/24 13:32:22;;;;;;;4.68;1.98;;;16.50;1.00;;;;;;4982567;28;20742;-78
2023/03/24 13:34:59;;;;;;;6.25;1.98;;;16.80;1.00;;;;;;4983279;28;20686;-78
2023/03/24 13:37:35;;;;;;;4.47;1.88;;;17.00;1.00;;;;;;4992287;28;20193;-79
2023/03/24 13:40:25;;;;;;;5.90;1.60;;;16.60;1.00;;;;;;4982393;28;20687;-77